Time;durP1;ratioP1;P1;durP2;ratioP2;P2;SDS_P1;SDS_P2;PMS_P1;PMS_P2;Temp;Humidity;BMP_temperature;BMP_pressure;BME280_temperature;BME280_humidity;BME280_pressure;Samples;Min_cycle;Max_cycle;Signal;HPM_P1;HPM_P2
2022/07/21 00:01:23;;;;;;;10.73;3.47;;;;;;;23.73;44.62;100597.16;5054218;28;20025;-86
2022/07/21 00:03:49;;;;;;;9.75;3.17;;;;;;;23.66;44.86;100585.34;5054537;28;20043;-86
2022/07/21 00:06:14;;;;;;;7.20;2.70;;;;;;;23.61;44.74;100587.88;5036435;28;20029;-86
2022/07/21 00:08:41;;;;;;;5.43;2.65;;;;;;;23.73;44.69;100603.50;5036919;28;20086;-86
2022/07/21 00:11:06;;;;;;;10.65;2.97;;;;;;;23.69;44.97;100582.19;5036236;28;20029;-85
2022/07/21 00:13:32;;;;;;;11.45;3.20;;;;;;;23.62;45.00;100573.94;5054138;28;20020;-85
2022/07/21 00:15:57;;;;;;;7.65;3.03;;;;;;;23.59;45.20;100568.88;5054229;28;20120;-87
2022/07/21 00:18:23;;;;;;;13.18;2.40;;;;;;;23.65;45.10;100583.66;5055920;28;20506;-88
2022/07/21 00:20:49;;;;;;;5.55;2.63;;;;;;;23.54;45.57;100573.31;5054168;28;20041;-87
2022/07/21 00:23:15;;;;;;;7.93;3.10;;;;;;;23.43;45.23;100569.28;5035646;28;20120;-87
2022/07/21 00:25:40;;;;;;;7.00;2.85;;;;;;;23.42;45.20;100581.34;5057713;28;20078;-87
2022/07/21 00:28:06;;;;;;;7.32;2.60;;;;;;;23.34;45.47;100575.97;5073073;28;20028;-87
2022/07/21 00:30:32;;;;;;;10.57;3.25;;;;;;;23.27;45.16;100554.00;5055686;28;20028;-86
2022/07/21 00:32:59;;;;;;;5.70;2.47;;;;;;;23.40;44.62;100569.69;5055233;28;20021;-87
2022/07/21 00:35:24;;;;;;;4.40;2.33;;;;;;;23.40;44.23;100558.72;5072515;28;20030;-85
2022/07/21 00:37:50;;;;;;;6.35;2.08;;;;;;;23.39;43.64;100546.06;5073756;28;20028;-86
2022/07/21 00:40:15;;;;;;;8.88;2.25;;;;;;;23.55;43.44;100566.75;5073620;28;20085;-86
2022/07/21 00:42:42;;;;;;;10.27;2.72;;;;;;;23.60;43.36;100565.09;5057987;28;20032;-86
2022/07/21 00:45:09;;;;;;;8.75;2.10;;;;;;;23.55;43.04;100553.88;5059245;28;20028;-86
2022/07/21 00:47:35;;;;;;;5.03;1.90;;;;;;;23.66;42.83;100564.22;5077114;28;20025;-86
2022/07/21 00:50:06;;;;;;;7.05;2.33;;;;;;;23.62;43.01;100551.97;5059516;28;20032;-86
2022/07/21 00:52:31;;;;;;;5.95;2.13;;;;;;;23.64;42.92;100554.50;5058558;28;20021;-85
2022/07/21 00:54:57;;;;;;;8.73;2.10;;;;;;;23.56;42.88;100536.34;5076098;28;20060;-86
2022/07/21 00:57:22;;;;;;;4.93;2.08;;;;;;;23.61;42.87;100538.44;5059127;28;20505;-86
2022/07/21 00:59:48;;;;;;;8.30;2.40;;;;;;;23.70;42.45;100543.50;5076723;28;20044;-85
2022/07/21 01:02:14;;;;;;;6.65;2.30;;;;;;;23.81;42.59;100548.38;5058729;28;20032;-85
2022/07/21 01:04:40;;;;;;;3.17;1.75;;;;;;;23.75;42.38;100534.66;5058903;28;20048;-86
2022/07/21 01:07:06;;;;;;;16.48;4.10;;;;;;;23.84;42.28;100539.72;5059439;28;20021;-86
2022/07/21 01:09:34;;;;;;;6.93;2.00;;;;;;;23.74;42.39;100513.72;5076986;28;20486;-85
2022/07/21 01:12:01;;;;;;;8.63;2.28;;;;;;;23.90;42.18;100537.16;5076188;28;20025;-85
2022/07/21 01:14:27;;;;;;;4.78;1.60;;;;;;;23.92;42.14;100532.28;5058880;28;20462;-85
2022/07/21 01:16:53;;;;;;;9.30;3.35;;;;;;;23.95;42.35;100534.59;5077284;28;20047;-86
2022/07/21 01:19:19;;;;;;;4.75;2.20;;;;;;;23.91;42.26;100527.88;5076967;28;20028;-86
2022/07/21 01:21:47;;;;;;;6.07;3.05;;;;;;;23.77;42.46;100514.16;5076128;28;20541;-86
2022/07/21 01:24:13;;;;;;;6.07;2.40;;;;;;;23.88;42.39;100525.56;5058510;28;20031;-86
2022/07/21 01:26:50;;;;;;;5.97;2.05;;;;;;;23.91;42.12;100516.88;5058439;28;20035;-86
2022/07/21 01:29:17;;;;;;;3.53;2.22;;;;;;;23.88;42.38;100523.66;5059525;28;20497;-86
2022/07/21 01:31:44;;;;;;;3.42;2.20;;;;;;;23.80;42.11;100502.72;5059468;28;20516;-86
2022/07/21 01:34:11;;;;;;;14.23;2.33;;;;;;;23.84;42.08;100500.41;5041735;28;20029;-85
2022/07/21 01:36:37;;;;;;;7.28;2.83;;;;;;;23.87;42.30;100499.13;5060626;28;20017;-86
2022/07/21 01:41:48;;;;;;;7.78;2.10;;;;;;;23.76;42.18;100493.22;5063262;28;20525;-85
2022/07/21 01:44:14;;;;;;;6.90;2.17;;;;;;;23.81;42.43;100489.84;5038192;28;20032;-85
2022/07/21 01:46:45;;;;;;;17.63;2.83;;;;;;;23.80;42.36;100505.47;5055902;28;20033;-84
2022/07/21 01:49:12;;;;;;;4.30;2.30;;;;;;;23.85;42.63;100513.91;5056602;28;20025;-85
2022/07/21 01:51:37;;;;;;;6.22;2.20;;;;;;;23.72;42.43;100480.16;5056691;28;20031;-85
2022/07/21 01:54:04;;;;;;;6.22;2.10;;;;;;;23.70;42.41;100466.63;5055539;28;20029;-85
2022/07/21 01:56:30;;;;;;;4.97;2.55;;;;;;;23.73;42.34;100482.66;5056514;28;20041;-85
2022/07/21 01:58:57;;;;;;;5.32;2.38;;;;;;;23.79;42.61;100491.97;5054684;28;20029;-84
2022/07/21 02:01:28;;;;;;;6.85;2.25;;;;;;;23.84;42.65;100495.75;5055423;28;20025;-85
2022/07/21 02:03:55;;;;;;;4.57;2.33;;;;;;;23.72;42.57;100486.50;5054525;28;20040;-85
2022/07/21 02:06:21;;;;;;;8.10;2.88;;;;;;;23.77;42.81;100497.66;5053949;28;20025;-85
2022/07/21 02:08:46;;;;;;;3.83;2.28;;;;;;;23.74;42.64;100484.34;5055022;28;20032;-85
2022/07/21 02:11:13;;;;;;;10.85;2.35;;;;;;;23.77;42.44;100494.91;5054159;28;20025;-85
2022/07/21 02:13:39;;;;;;;5.50;2.08;;;;;;;23.72;42.38;100481.00;5054201;28;20324;-85
2022/07/21 02:16:05;;;;;;;7.75;2.20;;;;;;;23.78;42.48;100493.03;5055891;28;20027;-85
2022/07/21 02:18:31;;;;;;;16.33;2.90;;;;;;;23.65;42.70;100474.66;5054652;28;20025;-86
2022/07/21 02:20:56;;;;;;;7.38;2.20;;;;;;;23.66;42.67;100473.63;5054073;28;20071;-85
2022/07/21 02:23:23;;;;;;;5.53;2.00;;;;;;;23.72;42.46;100481.00;5055805;28;20025;-84
2022/07/21 02:25:49;;;;;;;8.32;2.08;;;;;;;23.78;42.56;100495.78;5055219;28;20052;-83
2022/07/21 02:28:15;;;;;;;7.07;2.50;;;;;;;23.63;42.32;100459.47;5055465;28;20504;-85
2022/07/21 02:30:41;;;;;;;7.25;2.10;;;;;;;23.78;42.06;100485.63;5055247;28;20049;-85
2022/07/21 02:33:07;;;;;;;6.72;2.10;;;;;;;23.72;42.50;100474.66;5054653;28;20461;-86
2022/07/21 02:35:33;;;;;;;7.78;2.60;;;;;;;23.59;42.68;100453.53;5055633;28;20082;-85
2022/07/21 02:37:59;;;;;;;8.65;2.53;;;;;;;23.73;42.47;100471.69;5055491;28;20021;-85
2022/07/21 02:40:25;;;;;;;3.88;2.65;;;;;;;23.78;42.45;100477.41;5055578;28;20021;-86
2022/07/21 02:42:50;;;;;;;7.05;2.53;;;;;;;23.65;42.45;100452.69;5054395;28;20024;-84
2022/07/21 02:45:15;;;;;;;5.28;2.55;;;;;;;23.59;42.45;100442.56;5055063;28;20032;-84
2022/07/21 02:47:53;;;;;;;9.70;2.83;;;;;;;23.73;42.62;100471.69;5054795;28;20155;-84
2022/07/21 02:50:19;;;;;;;4.75;2.47;;;;;;;23.62;42.97;100463.25;5054554;28;20024;-84
2022/07/21 02:52:45;;;;;;;5.20;2.80;;;;;;;23.63;42.79;100465.78;5052599;28;20387;-84
2022/07/21 02:55:11;;;;;;;7.57;2.58;;;;;;;23.63;43.05;100468.53;5051994;28;20095;-85
2022/07/21 02:57:36;;;;;;;9.60;2.60;;;;;;;23.55;43.16;100479.72;5033560;28;20040;-85
2022/07/21 03:00:05;;;;;;;4.63;3.17;;;;;;;23.45;43.21;100453.78;5035828;28;20021;-86
2022/07/21 03:02:30;;;;;;;4.03;2.30;;;;;;;23.54;43.25;100467.09;5055403;28;20078;-84
2022/07/21 03:04:56;;;;;;;11.00;3.88;;;;;;;23.45;43.42;100451.03;5055145;28;20028;-84
2022/07/21 03:07:21;;;;;;;9.38;3.03;;;;;;;23.55;43.38;100465.16;5055587;28;20069;-84
2022/07/21 03:09:47;;;;;;;10.75;2.63;;;;;;;23.53;43.43;100462.63;5055213;28;20020;-85
2022/07/21 03:12:12;;;;;;;9.73;2.35;;;;;;;23.50;43.66;100463.06;5055922;28;20035;-85
2022/07/21 03:14:38;;;;;;;8.65;2.53;;;;;;;23.55;43.68;100462.41;5054764;28;20021;-83
2022/07/21 03:17:03;;;;;;;18.65;3.35;;;;;;;23.51;43.50;100461.16;5056375;28;20024;-84
2022/07/21 03:19:29;;;;;;;6.13;2.83;;;;;;;23.55;43.33;100479.72;5054726;28;20506;-84
2022/07/21 03:21:54;;;;;;;8.65;3.70;;;;;;;23.55;43.52;100479.72;5055788;28;20462;-87
2022/07/21 03:24:22;;;;;;;8.35;3.00;;;;;;;23.41;44.08;100467.09;5057470;28;20075;-87
2022/07/21 03:26:48;;;;;;;12.73;3.65;;;;;;;23.45;44.01;100468.34;5054494;28;20025;-86
2022/07/21 03:29:13;;;;;;;10.10;3.00;;;;;;;23.53;44.28;100487.34;5054775;28;20048;-82
2022/07/21 03:31:39;;;;;;;9.40;3.97;;;;;;;23.40;44.17;100468.13;5054399;28;20024;-82
2022/07/21 03:34:04;;;;;;;14.35;4.40;;;;;;;23.47;44.43;100482.69;5040515;28;20033;-83
2022/07/21 03:36:30;;;;;;;10.60;3.72;;;;;;;23.48;43.96;100481.66;5034436;28;20013;-82
2022/07/21 03:38:55;;;;;;;10.65;3.95;;;;;;;23.45;44.09;100476.59;5033185;28;20424;-83
2022/07/21 03:41:21;;;;;;;8.55;3.55;;;;;;;23.50;44.38;100486.91;5033030;28;20502;-82
2022/07/21 03:43:46;;;;;;;11.73;3.47;;;;;;;23.49;44.26;100475.09;5032737;28;20024;-81
2022/07/21 03:46:12;;;;;;;13.00;3.15;;;;;;;23.49;44.30;100480.56;5033481;28;20032;-86
2022/07/21 03:48:38;;;;;;;25.40;3.75;;;;;;;23.48;44.54;100473.41;5032626;28;20104;-89
2022/07/21 03:51:04;;;;;;;13.70;4.68;;;;;;;23.37;44.50;100453.94;5034244;28;20030;-84
2022/07/21 03:53:29;;;;;;;23.95;4.75;;;;;;;23.43;44.54;100458.63;5034271;28;20053;-84
2022/07/21 03:55:55;;;;;;;21.55;5.72;;;;;;;23.44;44.57;100466.66;5045063;28;20037;-84
2022/07/21 03:58:20;;;;;;;25.73;5.68;;;;;;;23.34;44.73;100455.22;5053513;28;20025;-84
2022/07/21 04:00:46;;;;;;;44.25;8.07;;;;;;;23.37;45.09;100457.53;5054139;28;20049;-85
2022/07/21 04:03:12;;;;;;;12.23;5.22;;;;;;;23.29;45.07;100463.25;5068287;28;20406;-86
2022/07/21 04:05:39;;;;;;;21.80;5.45;;;;;;;23.12;45.57;100432.63;5074725;28;20032;-86
2022/07/21 04:08:06;;;;;;;29.95;5.63;;;;;;;23.39;45.33;100476.56;5042064;28;20060;-87
2022/07/21 04:10:35;;;;;;;24.67;5.97;;;;;;;23.34;45.80;100466.19;5054978;28;20028;-85
2022/07/21 04:13:02;;;;;;;29.17;5.78;;;;;;;23.41;45.74;100461.59;5056318;28;20025;-84
2022/07/21 04:15:28;;;;;;;27.85;7.63;;;;;;;23.37;45.90;100453.94;5038659;28;20429;-85
2022/07/21 04:17:54;;;;;;;38.13;8.20;;;;;;;23.35;46.01;100451.44;5061835;28;20516;-87
2022/07/21 04:20:20;;;;;;;64.78;8.57;;;;;;;23.39;45.88;100452.72;5043172;28;20035;-86
2022/07/21 04:22:47;;;;;;;32.30;7.07;;;;;;;23.62;45.62;100475.09;5058246;28;20025;-87
2022/07/21 04:25:13;;;;;;;42.88;6.88;;;;;;;23.62;46.20;100469.59;5039655;28;20032;-86
2022/07/21 04:27:42;;;;;;;22.83;5.63;;;;;;;23.71;45.67;100473.81;5056894;28;20025;-87
2022/07/21 04:30:10;;;;;;;26.58;5.78;;;;;;;23.77;45.88;100452.88;5039828;28;20035;-87
2022/07/21 04:32:36;;;;;;;33.25;6.45;;;;;;;23.77;45.59;100448.22;5057828;28;20032;-85
2022/07/21 04:35:03;;;;;;;34.50;6.47;;;;;;;24.14;45.21;100481.53;5039208;28;20072;-86
2022/07/21 04:37:29;;;;;;;26.33;4.50;;;;;;;24.28;45.15;100474.94;5039901;28;20090;-83
2022/07/21 04:39:54;;;;;;;37.45;6.47;;;;;;;24.37;44.75;100465.41;5056810;28;20474;-83
2022/07/21 04:42:20;;;;;;;11.75;4.00;;;;;;;24.53;44.52;100459.38;5039285;28;20072;-88
2022/07/21 04:44:45;;;;;;;14.07;4.20;;;;;;;24.75;43.85;100460.75;5058578;28;20032;-89
2022/07/21 04:47:11;;;;;;;12.48;4.10;;;;;;;24.87;43.50;100461.75;5040895;28;20017;-89
2022/07/21 04:49:36;;;;;;;23.45;4.72;;;;;;;25.13;42.84;100474.50;5041045;28;20020;-83
2022/07/21 04:52:02;;;;;;;23.48;3.63;;;;;;;25.30;42.45;100480.28;5071317;28;20048;-83
2022/07/21 04:54:28;;;;;;;13.52;3.88;;;;;;;25.43;42.26;100464.50;5058459;28;20032;-79
2022/07/21 04:56:53;;;;;;;22.27;5.20;;;;;;;25.61;41.74;100460.97;5055021;28;20533;-80
2022/07/21 04:59:19;;;;;;;21.88;3.63;;;;;;;25.78;41.48;100478.59;5054892;28;20028;-86
2022/07/21 05:01:44;;;;;;;24.38;3.38;;;;;;;25.86;41.38;100477.47;5055717;28;20100;-83
2022/07/21 05:04:10;;;;;;;33.80;5.45;;;;;;;25.94;41.21;100475.25;5055206;28;20127;-80
2022/07/21 05:06:35;;;;;;;21.13;4.45;;;;;;;26.09;40.81;100476.78;5055377;28;20348;-81
2022/07/21 05:09:01;;;;;;;17.45;3.67;;;;;;;26.16;40.69;100469.31;5055708;28;20017;-81
2022/07/21 05:11:27;;;;;;;40.28;5.13;;;;;;;26.20;40.77;100470.53;5061286;28;20029;-77
2022/07/21 05:13:52;;;;;;;17.67;4.78;;;;;;;26.23;40.70;100464.56;5052392;28;20562;-76
2022/07/21 05:16:18;;;;;;;17.13;4.65;;;;;;;26.36;40.63;100480.97;5053168;28;20503;-76
2022/07/21 05:18:43;;;;;;;18.58;4.50;;;;;;;26.39;40.80;100491.53;5053928;28;20029;-79
2022/07/21 05:21:09;;;;;;;24.85;3.67;;;;;;;26.46;40.67;100486.75;5054867;28;20028;-79
2022/07/21 05:23:34;;;;;;;15.80;3.83;;;;;;;26.52;40.65;100485.81;5054143;28;20025;-79
2022/07/21 05:26:00;;;;;;;17.63;4.53;;;;;;;26.58;40.78;100495.09;5052731;28;20035;-79
2022/07/21 05:28:28;;;;;;;16.92;5.50;;;;;;;26.63;40.73;100504.38;5034109;28;20029;-80
2022/07/21 05:30:53;;;;;;;12.55;7.00;;;;;;;26.70;40.67;100493.22;5035437;28;20021;-79
2022/07/21 05:33:20;;;;;;;13.10;4.07;;;;;;;26.68;40.39;100496.22;5054341;28;20529;-79
2022/07/21 05:35:45;;;;;;;18.77;4.18;;;;;;;26.70;40.77;100498.75;5054728;28;20021;-79
2022/07/21 05:38:11;;;;;;;15.50;3.55;;;;;;;26.79;40.67;100503.72;5055760;28;20151;-78
2022/07/21 05:40:37;;;;;;;17.92;4.45;;;;;;;26.87;40.70;100511.72;5053796;28;20021;-79
2022/07/21 05:43:02;;;;;;;15.82;3.85;;;;;;;26.94;40.78;100517.16;5053642;28;20021;-79
2022/07/21 05:45:27;;;;;;;12.15;4.78;;;;;;;26.99;40.79;100520.88;5053886;28;20039;-81
2022/07/21 05:47:53;;;;;;;14.98;5.57;;;;;;;27.07;40.43;100522.44;5053731;28;20058;-81
2022/07/21 05:50:18;;;;;;;18.20;5.63;;;;;;;27.16;40.30;100520.19;5053762;28;20037;-81
2022/07/21 05:52:44;;;;;;;11.10;3.88;;;;;;;27.20;40.03;100524.19;5053184;28;20021;-79
2022/07/21 05:55:09;;;;;;;49.95;6.05;;;;;;;27.30;40.21;100521.69;5053279;28;20586;-79
2022/07/21 05:57:36;;;;;;;11.20;4.40;;;;;;;27.42;39.99;100525.31;5053549;28;20100;-80
2022/07/21 06:00:01;;;;;;;12.13;5.25;;;;;;;27.45;39.75;100524.88;5054206;28;20109;-79
2022/07/21 06:02:30;;;;;;;7.45;3.75;;;;;;;27.53;39.89;100530.03;5055321;28;20446;-80
2022/07/21 06:04:56;;;;;;;15.40;3.63;;;;;;;27.65;39.55;100536.44;5055196;28;20478;-80
2022/07/21 06:07:22;;;;;;;10.77;3.28;;;;;;;27.72;39.63;100537.16;5054602;28;20029;-80
2022/07/21 06:09:48;;;;;;;20.92;5.95;;;;;;;27.84;39.15;100524.19;5054292;28;20028;-83
2022/07/21 06:12:13;;;;;;;26.92;4.43;;;;;;;27.86;38.69;100532.22;5053095;28;20077;-77
2022/07/21 06:14:39;;;;;;;19.48;4.30;;;;;;;27.95;38.89;100515.03;5052807;28;20032;-78
2022/07/21 06:17:04;;;;;;;15.23;3.70;;;;;;;27.99;38.31;100516.25;5052444;28;20356;-78
2022/07/21 06:19:31;;;;;;;10.02;4.00;;;;;;;27.99;38.41;100516.25;5052294;28;20021;-77
2022/07/21 06:21:56;;;;;;;14.25;3.70;;;;;;;28.07;38.76;100526.16;5052119;28;20136;-77
2022/07/21 06:24:22;;;;;;;11.15;4.57;;;;;;;28.16;38.80;100512.78;5052299;28;20163;-76
2022/07/21 06:26:48;;;;;;;9.55;3.78;;;;;;;28.21;38.73;100515.66;5052033;28;20820;-76
2022/07/21 06:29:14;;;;;;;20.88;4.57;;;;;;;28.30;38.52;100512.28;5052536;28;20059;-78
2022/07/21 06:31:39;;;;;;;14.98;4.22;;;;;;;28.25;38.15;100511.34;5054217;28;20063;-85
2022/07/21 06:34:05;;;;;;;9.50;4.35;;;;;;;28.28;38.56;100508.94;5054416;28;20513;-85
2022/07/21 06:36:30;;;;;;;24.20;4.47;;;;;;;28.44;38.13;100513.69;5052782;28;20025;-80
2022/07/21 06:38:56;;;;;;;11.13;3.95;;;;;;;28.48;38.74;100519.56;5053045;28;20069;-79
2022/07/21 06:41:21;;;;;;;15.30;4.43;;;;;;;28.66;38.22;100522.19;5054100;28;20029;-87
2022/07/21 06:43:47;;;;;;;21.48;4.05;;;;;;;28.62;38.26;100498.84;5053886;28;20027;-79
2022/07/21 06:46:12;;;;;;;12.77;4.43;;;;;;;28.77;37.86;100515.81;5054547;28;20502;-81
2022/07/21 06:48:38;;;;;;;9.07;3.85;;;;;;;28.80;37.80;100512.53;5054125;28;20027;-80
2022/07/21 06:51:04;;;;;;;24.58;5.47;;;;;;;28.89;38.02;100508.28;5054468;28;20035;-81
2022/07/21 06:53:29;;;;;;;15.57;4.70;;;;;;;28.98;37.84;100511.50;5054295;28;20056;-79
2022/07/21 06:55:55;;;;;;;13.52;4.28;;;;;;;29.02;37.66;100518.22;5052519;28;20128;-79
2022/07/21 06:58:24;;;;;;;53.45;7.00;;;;;;;29.09;37.30;100521.66;5052796;28;20060;-79
2022/07/21 07:00:50;;;;;;;26.73;5.13;;;;;;;29.11;37.35;100513.97;5052590;28;20048;-79
2022/07/21 07:03:17;;;;;;;31.58;15.57;;;;;;;29.24;37.46;100523.91;5052529;28;20047;-78
2022/07/21 07:05:44;;;;;;;18.30;7.15;;;;;;;29.26;37.77;100528.13;5052778;28;20079;-78
2022/07/21 07:08:11;;;;;;;33.70;5.00;;;;;;;29.31;36.41;100508.81;5052376;28;20129;-78
2022/07/21 07:10:36;;;;;;;13.07;3.95;;;;;;;29.33;36.65;100505.78;5052259;28;20475;-79
2022/07/21 07:13:02;;;;;;;19.67;4.43;;;;;;;29.42;36.60;100520.91;5052674;28;20053;-79
2022/07/21 07:15:28;;;;;;;22.33;5.07;;;;;;;29.53;36.32;100517.22;5052373;28;20021;-80
2022/07/21 07:17:54;;;;;;;23.38;5.68;;;;;;;29.54;35.98;100514.19;5052574;28;20067;-79
2022/07/21 07:20:21;;;;;;;16.00;4.30;;;;;;;29.51;36.13;100497.25;5052827;28;20053;-79
2022/07/21 07:22:47;;;;;;;15.25;5.28;;;;;;;29.59;36.24;100510.69;5052753;28;20378;-80
2022/07/21 07:25:16;;;;;;;14.40;4.30;;;;;;;29.66;35.75;100505.81;5052566;28;20036;-79
2022/07/21 07:27:43;;;;;;;41.72;5.63;;;;;;;29.68;35.69;100501.69;5052613;28;20021;-79
2022/07/21 07:30:09;;;;;;;24.55;5.22;;;;;;;29.77;35.29;100507.63;5052698;28;20036;-79
2022/07/21 07:32:34;;;;;;;23.23;5.60;;;;;;;29.77;35.23;100496.56;5052634;28;20056;-80
2022/07/21 07:35:00;;;;;;;22.80;4.80;;;;;;;29.79;35.27;100499.91;5052741;28;20063;-80
2022/07/21 07:37:25;;;;;;;23.65;4.53;;;;;;;29.85;35.09;100520.25;5052961;28;20029;-80
2022/07/21 07:39:51;;;;;;;17.15;4.18;;;;;;;29.88;34.84;100508.66;5053088;28;20036;-78
2022/07/21 07:42:16;;;;;;;29.45;4.82;;;;;;;29.91;35.08;100509.00;5052605;28;20064;-79
2022/07/21 07:44:42;;;;;;;21.45;7.22;;;;;;;29.97;34.84;100501.56;5053031;28;20450;-79
2022/07/21 07:47:07;;;;;;;16.60;5.13;;;;;;;30.05;34.70;100507.56;5053155;28;20029;-79
2022/07/21 07:49:32;;;;;;;18.33;5.70;;;;;;;30.07;34.77;100513.69;5052268;28;20049;-80
2022/07/21 07:51:58;;;;;;;24.52;5.38;;;;;;;30.07;35.08;100502.59;5056098;28;20544;-79
2022/07/21 07:54:24;;;;;;;11.68;4.15;;;;;;;30.16;34.95;100506.59;5057242;28;20452;-77
2022/07/21 07:56:50;;;;;;;18.27;4.93;;;;;;;30.29;35.13;100515.63;5056837;28;20053;-78
2022/07/21 07:59:15;;;;;;;13.90;4.85;;;;;;;30.34;35.22;100516.53;5057076;28;20029;-80
2022/07/21 08:01:41;;;;;;;14.07;4.57;;;;;;;30.43;35.39;100508.63;5057060;28;20098;-79
2022/07/21 08:04:06;;;;;;;12.45;4.72;;;;;;;30.55;35.08;100517.69;5056877;28;20088;-78
2022/07/21 08:06:32;;;;;;;15.27;5.72;;;;;;;30.63;34.91;100522.78;5056434;28;20494;-79
2022/07/21 08:08:58;;;;;;;22.60;6.72;;;;;;;30.69;34.58;100507.88;5056367;28;20056;-78
2022/07/21 08:11:23;;;;;;;14.05;4.88;;;;;;;30.67;34.58;100510.06;5056504;28;20021;-78
2022/07/21 08:13:49;;;;;;;16.75;5.03;;;;;;;30.76;34.56;100516.84;5056424;28;20463;-78
2022/07/21 08:16:15;;;;;;;13.70;6.22;;;;;;;30.71;34.43;100502.88;5056329;28;20028;-78
2022/07/21 08:18:42;;;;;;;14.77;5.22;;;;;;;30.75;34.25;100504.06;5037810;28;20407;-78
2022/07/21 08:21:07;;;;;;;18.05;5.20;;;;;;;30.83;34.01;100523.03;5056359;28;20028;-78
2022/07/21 08:23:33;;;;;;;19.75;6.15;;;;;;;30.93;33.94;100522.31;5056671;28;20024;-80
2022/07/21 08:25:59;;;;;;;18.48;5.30;;;;;;;31.00;33.33;100528.53;5056052;28;20384;-80
2022/07/21 08:28:24;;;;;;;16.58;4.53;;;;;;;31.05;33.50;100526.63;5055712;28;20029;-79
2022/07/21 08:30:50;;;;;;;17.42;4.57;;;;;;;31.14;33.23;100529.78;5055683;28;20475;-80
2022/07/21 08:33:15;;;;;;;18.08;5.57;;;;;;;31.09;32.62;100522.25;5055322;28;20021;-80
2022/07/21 08:35:41;;;;;;;35.58;5.68;;;;;;;31.12;32.99;100529.22;5055589;28;20036;-80
2022/07/21 08:38:08;;;;;;;9.35;4.35;;;;;;;31.16;33.06;100539.53;5055736;28;20100;-78
2022/07/21 08:40:37;;;;;;;17.60;4.65;;;;;;;31.24;33.09;100541.00;5055223;28;20039;-79
2022/07/21 08:43:03;;;;;;;13.27;4.43;;;;;;;31.25;32.98;100532.41;5055497;28;20021;-82
2022/07/21 08:45:30;;;;;;;23.40;5.25;;;;;;;31.28;33.24;100537.44;5055776;28;20032;-80
2022/07/21 08:47:57;;;;;;;15.25;4.65;;;;;;;31.44;33.53;100540.34;5055107;28;20104;-80
2022/07/21 08:50:25;;;;;;;17.67;4.30;;;;;;;31.50;32.90;100534.59;5055259;28;20024;-80
2022/07/21 08:52:50;;;;;;;33.22;5.65;;;;;;;31.68;33.13;100545.34;5055768;28;20109;-81
2022/07/21 08:55:16;;;;;;;12.60;5.05;;;;;;;31.77;32.62;100542.94;5055269;28;20076;-81
2022/07/21 08:57:42;;;;;;;32.78;4.85;;;;;;;31.82;32.59;100548.53;5056155;28;20068;-81
2022/07/21 09:00:09;;;;;;;10.77;4.10;;;;;;;31.91;32.22;100535.78;5055526;28;20029;-80
2022/07/21 09:02:37;;;;;;;23.00;5.38;;;;;;;31.95;32.33;100539.72;5054338;28;20485;-81
2022/07/21 09:05:05;;;;;;;11.82;3.83;;;;;;;32.00;32.19;100539.75;5055906;28;20025;-81
2022/07/21 09:08:00;;;;;;;20.40;5.90;;;;;;;32.00;32.28;100539.75;5055864;28;20024;-80
2022/07/21 09:10:28;;;;;;;13.48;5.70;;;;;;;31.90;31.85;100538.81;5056003;28;20025;-80
2022/07/21 09:13:00;;;;;;;20.60;5.95;;;;;;;31.72;32.18;100542.88;5056998;28;20498;-80
2022/07/21 09:15:27;;;;;;;9.85;4.13;;;;;;;31.68;32.77;100530.63;5055951;28;20104;-80
2022/07/21 09:18:22;;;;;;;18.38;4.88;;;;;;;31.78;32.31;100547.38;5037083;28;20033;-80
2022/07/21 09:20:50;;;;;;;22.02;5.40;;;;;;;31.68;32.46;100542.56;5024457;28;20028;-79
2022/07/21 09:23:18;;;;;;;18.45;5.65;;;;;;;31.79;33.06;100543.50;5067945;28;20083;-81
2022/07/21 09:25:46;;;;;;;20.20;5.60;;;;;;;31.76;32.62;100544.88;5041909;28;20029;-80
2022/07/21 09:28:20;;;;;;;27.05;5.78;;;;;;;31.71;32.17;100541.22;5052189;28;20079;-86
2022/07/21 09:30:59;;;;;;;20.10;5.75;;;;;;;31.65;32.41;100528.38;5044379;28;20024;-85
2022/07/21 09:33:31;;;;;;;6.35;4.35;;;;;;;31.70;31.96;100545.94;5058308;28;20579;-85
2022/07/21 09:36:10;;;;;;;11.13;4.90;;;;;;;31.76;32.79;100549.59;5058768;28;20024;-85
2022/07/21 09:38:43;;;;;;;10.43;4.80;;;;;;;31.81;31.60;100525.41;5056325;28;20021;-85
2022/07/21 09:41:13;;;;;;;9.98;4.25;;;;;;;32.00;31.77;100545.31;5056474;28;20017;-86
2022/07/21 09:43:56;;;;;;;23.65;5.07;;;;;;;32.10;32.08;100545.41;5056695;28;20029;-84
2022/07/21 09:46:24;;;;;;;18.73;4.25;;;;;;;32.29;31.92;100549.41;5073003;28;20021;-84
2022/07/21 09:48:52;;;;;;;11.77;4.25;;;;;;;32.32;31.73;100548.88;5075508;28;20024;-83
2022/07/21 09:51:25;;;;;;;9.88;4.22;;;;;;;32.23;30.94;100538.56;5075793;28;20103;-83
2022/07/21 09:54:02;;;;;;;24.08;8.35;;;;;;;32.20;36.19;100545.47;5064123;28;20044;-83
2022/07/21 09:56:30;;;;;;;17.83;5.65;;;;;;;31.95;40.29;100564.75;5054729;28;20052;-83
2022/07/21 09:58:57;;;;;;;17.95;5.40;;;;;;;31.61;43.16;100569.78;5054874;28;20017;-82
2022/07/21 10:01:25;;;;;;;38.63;6.97;;;;;;;31.34;45.31;100565.28;5041583;28;20029;-82
2022/07/21 10:03:52;;;;;;;15.75;5.85;;;;;;;30.97;46.65;100560.47;5036951;28;20522;-81
2022/07/21 10:06:22;;;;;;;28.52;5.68;;;;;;;30.48;48.23;100578.97;5054707;28;20024;-83
2022/07/21 10:08:48;;;;;;;28.48;6.75;;;;;;;30.28;49.98;100572.22;5054689;28;20052;-84
2022/07/21 10:11:14;;;;;;;13.73;4.93;;;;;;;30.31;50.07;100574.50;5054801;28;20025;-83
2022/07/21 10:13:40;;;;;;;20.98;5.97;;;;;;;30.30;50.14;100572.84;5074290;28;20023;-83
2022/07/21 10:16:09;;;;;;;16.83;4.85;;;;;;;29.81;48.76;100563.44;5064821;28;20021;-84
2022/07/21 10:18:44;;;;;;;43.92;7.10;;;;;;;29.77;49.57;100567.78;5053980;28;20016;-87
2022/07/21 10:21:49;;;;;;;20.73;6.45;;;;;;;29.73;49.79;100578.56;5042061;28;20028;-86
2022/07/21 10:24:16;;;;;;;21.77;5.65;;;;;;;29.80;48.70;100579.22;5037038;28;20033;-86
2022/07/21 10:27:14;;;;;;;11.38;5.63;;;;;;;29.64;48.38;100568.97;5054874;28;20109;-86
2022/07/21 10:30:01;;;;;;;15.05;5.28;;;;;;;29.70;49.30;100573.50;5001721;28;20044;-86
2022/07/21 10:32:32;;;;;;;31.42;6.72;;;;;;;29.59;50.57;100579.97;5016843;28;20407;-85
2022/07/21 10:35:01;;;;;;;27.40;6.07;;;;;;;29.89;50.56;100580.53;5064086;28;20048;-85
2022/07/21 10:37:39;;;;;;;31.30;6.22;;;;;;;29.90;49.59;100579.44;5074566;28;20024;-84
2022/07/21 10:40:24;;;;;;;14.52;4.95;;;;;;;30.02;49.77;100580.19;5074666;28;20025;-86
2022/07/21 10:42:59;;;;;;;14.38;5.18;;;;;;;30.07;48.94;100588.59;5057163;28;20041;-85
2022/07/21 10:45:36;;;;;;;18.85;5.70;;;;;;;30.01;48.69;100575.72;5063163;28;20032;-85
2022/07/21 10:48:06;;;;;;;13.70;5.85;;;;;;;30.21;48.37;100578.81;5065005;28;20068;-81
2022/07/21 10:50:41;;;;;;;15.95;5.35;;;;;;;30.34;46.34;100573.97;5041814;28;20029;-79
2022/07/21 10:53:14;;;;;;;14.70;5.65;;;;;;;30.32;45.29;100565.09;5053094;28;20041;-79
2022/07/21 10:55:47;;;;;;;15.18;5.07;;;;;;;30.34;44.83;100566.50;5060957;28;20106;-79
2022/07/21 10:58:26;;;;;;;22.17;4.28;;;;;;;30.50;44.03;100570.38;5047634;28;20389;-80
2022/07/21 11:00:52;;;;;;;8.30;4.38;;;;;;;30.30;43.98;100584.78;5074062;28;20021;-80
2022/07/21 11:03:30;;;;;;;16.60;5.18;;;;;;;30.05;44.75;100570.50;5071401;28;20024;-80
2022/07/21 11:06:27;;;;;;;22.23;5.70;;;;;;;29.96;45.27;100583.13;5061287;28;20037;-80
2022/07/21 11:09:04;;;;;;;18.05;5.95;;;;;;;30.10;45.65;100579.75;5060081;28;20048;-81
2022/07/21 11:11:36;;;;;;;36.15;5.57;;;;;;;30.19;45.99;100583.78;5039878;28;20037;-81
2022/07/21 11:14:18;;;;;;;16.83;5.63;;;;;;;30.04;45.82;100586.31;5035364;28;20055;-81
2022/07/21 11:16:49;;;;;;;;;;;;;;;29.63;45.55;100595.03;5046095;28;20832;-80
2022/07/21 11:19:52;;;;;;;28.10;6.32;;;;;;;29.55;46.36;100587.94;5053136;28;19919;-80
2022/07/21 11:22:23;;;;;;;11.10;5.20;;;;;;;29.51;47.16;100591.50;5016449;28;20064;-79
2022/07/21 11:24:55;;;;;;;17.67;5.40;;;;;;;29.60;47.12;100598.31;5072851;28;20051;-80